createdAt,value
2023-03-25T00:22:29.457Z,30.13
2023-03-25T00:24:59.355Z,31.67
2023-03-25T00:27:29.377Z,30.45
2023-03-25T00:32:19.443Z,30.35
2023-03-25T00:34:49.308Z,32.38
2023-03-25T00:37:19.510Z,31.67
2023-03-25T00:39:49.821Z,32.78
2023-03-25T00:42:27.871Z,34.20
2023-03-25T00:47:27.502Z,33.75
2023-03-25T00:49:57.500Z,33.92
2023-03-25T00:52:27.455Z,35.13
2023-03-25T00:54:57.299Z,32.60
2023-03-25T00:57:27.336Z,35.30
2023-03-25T00:59:57.091Z,35.70
2023-03-25T01:02:27.945Z,33.72
2023-03-25T01:04:59.492Z,35.67
2023-03-25T01:07:31.280Z,34.65
2023-03-25T01:10:02.044Z,33.92
2023-03-25T01:12:32.096Z,33.53
2023-03-25T01:15:03.583Z,32.92
2023-03-25T01:17:33.982Z,32.72
2023-03-25T01:20:04.047Z,32.97
2023-03-25T01:22:34.283Z,32.67
2023-03-25T01:25:04.494Z,34.17
2023-03-25T01:27:34.486Z,34.15
2023-03-25T01:30:04.681Z,33.65
2023-03-25T01:32:34.998Z,33.50
2023-03-25T01:35:06.719Z,33.28
2023-03-25T01:37:38.460Z,32.08
2023-03-25T01:40:11.894Z,33.83
2023-03-25T01:42:41.906Z,33.42
2023-03-25T01:45:32.695Z,34.38
2023-03-25T01:48:17.141Z,33.72
2023-03-25T01:50:52.641Z,33.20
2023-03-25T01:53:23.207Z,32.90
2023-03-25T01:55:56.402Z,32.15
2023-03-25T01:58:29.093Z,31.83
2023-03-25T02:00:59.658Z,31.20
2023-03-25T02:03:32.685Z,30.45
2023-03-25T02:06:12.341Z,29.40
2023-03-25T02:08:44.219Z,29.90
2023-03-25T02:11:14.349Z,29.80
2023-03-25T02:13:45.344Z,29.77
2023-03-25T02:16:31.679Z,28.25
2023-03-25T02:19:29.893Z,27.90
2023-03-25T02:22:42.057Z,26.55
2023-03-25T02:25:41.616Z,26.88
2023-03-25T02:28:42.687Z,28.75
2023-03-25T02:31:51.658Z,26.80
2023-03-25T02:34:39.684Z,27.10
2023-03-25T02:37:48.843Z,27.52
2023-03-25T02:40:28.807Z,26.20
2023-03-25T02:43:11.964Z,26.13
2023-03-25T02:45:50.615Z,25.00
2023-03-25T02:48:36.127Z,25.67
2023-03-25T02:51:12.278Z,24.55
2023-03-25T02:53:45.059Z,24.45
2023-03-25T02:56:18.926Z,26.48
2023-03-25T02:58:51.630Z,25.40
2023-03-25T03:01:24.505Z,24.17
2023-03-25T03:03:55.934Z,24.60
2023-03-25T03:06:27.950Z,24.10
2023-03-25T03:09:37.128Z,21.60
2023-03-25T03:12:46.105Z,23.17
2023-03-25T03:15:41.767Z,23.02
2023-03-25T03:18:36.123Z,22.90
2023-03-25T03:21:25.159Z,22.80
2023-03-25T03:24:08.804Z,20.83
2023-03-25T03:26:55.731Z,21.75
2023-03-25T03:29:38.205Z,19.93
2023-03-25T03:32:24.252Z,18.00
2023-03-25T03:35:06.643Z,19.13
2023-03-25T03:37:46.741Z,19.23
2023-03-25T03:40:20.787Z,19.65
2023-03-25T03:43:00.669Z,19.50
2023-03-25T03:45:50.330Z,18.67
2023-03-25T03:48:43.971Z,19.38
2023-03-25T03:51:21.322Z,19.50
2023-03-25T03:54:02.506Z,20.30
2023-03-25T03:56:43.185Z,21.73
2023-03-25T03:59:25.495Z,21.65
2023-03-25T04:02:02.764Z,21.20
2023-03-25T04:04:36.837Z,22.50
2023-03-25T04:07:20.207Z,21.98
2023-03-25T04:10:22.683Z,22.65
2023-03-25T04:12:55.826Z,22.27
2023-03-25T04:15:26.022Z,21.45
2023-03-25T04:17:56.718Z,22.42
2023-03-25T04:20:31.839Z,22.80
2023-03-25T04:23:02.146Z,21.77
2023-03-25T04:25:34.386Z,21.92
2023-03-25T04:28:05.169Z,22.90
2023-03-25T04:30:35.346Z,19.92
2023-03-25T04:33:05.353Z,22.63
2023-03-25T04:35:35.902Z,21.63
2023-03-25T04:38:07.585Z,21.60
2023-03-25T04:40:37.718Z,22.48
2023-03-25T04:43:08.384Z,21.70
2023-03-25T04:45:38.498Z,21.67
2023-03-25T04:48:08.752Z,21.55
2023-03-25T04:50:38.780Z,20.20
2023-03-25T04:53:08.793Z,19.42
2023-03-25T04:55:38.709Z,20.75
2023-03-25T04:58:09.485Z,20.92
2023-03-25T05:00:39.375Z,19.45
2023-03-25T05:03:09.214Z,20.20
2023-03-25T05:05:39.182Z,16.85
2023-03-25T05:08:09.758Z,19.10
2023-03-25T05:10:40.727Z,17.88
2023-03-25T05:13:11.296Z,18.80
2023-03-25T05:15:41.565Z,17.67
2023-03-25T05:18:15.473Z,18.27
2023-03-25T05:20:48.822Z,18.23
2023-03-25T05:23:19.760Z,18.77
2023-03-25T05:25:52.478Z,17.85
2023-03-25T05:28:22.905Z,16.92
2023-03-25T05:30:53.900Z,16.90
2023-03-25T05:33:24.584Z,16.25
2023-03-25T05:35:54.836Z,16.38
2023-03-25T05:38:24.793Z,15.55
2023-03-25T05:40:54.969Z,17.88
2023-03-25T05:43:25.068Z,14.15
2023-03-25T05:45:55.251Z,12.23
2023-03-25T05:48:25.202Z,12.90
2023-03-25T05:50:58.367Z,13.65
2023-03-25T05:53:28.362Z,13.98
2023-03-25T05:55:58.283Z,13.80
2023-03-25T05:58:28.393Z,12.80
2023-03-25T06:00:58.320Z,13.68
2023-03-25T06:03:29.419Z,14.30
2023-03-25T06:05:59.666Z,14.38
2023-03-25T06:08:31.790Z,14.27
2023-03-25T06:11:02.573Z,14.90
2023-03-25T06:13:35.847Z,14.15
2023-03-25T06:16:07.762Z,13.02
2023-03-25T06:18:39.046Z,12.57
2023-03-25T06:21:10.479Z,13.63
2023-03-25T06:23:41.294Z,13.05
2023-03-25T06:26:11.383Z,12.02
2023-03-25T06:28:41.720Z,12.35
2023-03-25T06:31:20.385Z,12.27
2023-03-25T06:33:52.676Z,14.02
2023-03-25T06:36:23.003Z,13.07
2023-03-25T06:38:53.573Z,12.90
2023-03-25T06:41:23.715Z,12.77
2023-03-25T06:43:53.526Z,13.48
2023-03-25T06:46:23.547Z,13.77
2023-03-25T06:48:53.870Z,13.90
2023-03-25T06:51:24.496Z,13.73
2023-03-25T06:53:54.540Z,13.32
2023-03-25T06:56:24.777Z,13.10
2023-03-25T06:58:54.807Z,13.43
2023-03-25T07:01:24.824Z,13.40
2023-03-25T07:03:54.808Z,14.27
2023-03-25T07:06:26.195Z,14.63
2023-03-25T07:08:56.166Z,14.98
2023-03-25T07:11:30.660Z,13.48
2023-03-25T07:14:00.507Z,13.77
2023-03-25T07:16:31.549Z,14.13
2023-03-25T07:19:01.659Z,14.02
2023-03-25T07:21:31.577Z,14.15
2023-03-25T07:24:01.424Z,14.05
2023-03-25T07:26:31.830Z,13.52
2023-03-25T07:29:02.561Z,13.85
2023-03-25T07:31:32.940Z,13.70
2023-03-25T07:34:04.619Z,13.77
2023-03-25T07:36:34.542Z,15.45
2023-03-25T07:39:04.754Z,15.40
2023-03-25T07:41:34.722Z,14.55
2023-03-25T07:44:04.870Z,16.25
2023-03-25T07:46:35.096Z,15.90
2023-03-25T07:49:05.839Z,17.88
2023-03-25T07:51:36.913Z,17.13
2023-03-25T07:54:07.191Z,18.45
2023-03-25T07:56:37.489Z,17.15
2023-03-25T07:59:07.841Z,14.13
2023-03-25T08:01:37.965Z,14.95
2023-03-25T08:04:08.230Z,14.80
2023-03-25T08:06:38.112Z,15.73
2023-03-25T08:09:09.291Z,13.32
2023-03-25T08:11:39.308Z,13.82
2023-03-25T08:14:09.675Z,12.80
2023-03-25T08:16:39.743Z,13.25
2023-03-25T08:19:09.697Z,12.98
2023-03-25T08:21:39.696Z,14.20
2023-03-25T08:24:09.865Z,13.05
2023-03-25T08:26:40.480Z,12.60
2023-03-25T08:29:11.940Z,13.45
2023-03-25T08:31:42.251Z,12.85
2023-03-25T08:34:12.373Z,13.57
2023-03-25T08:36:42.459Z,14.88
2023-03-25T08:39:13.470Z,13.55
2023-03-25T08:41:43.443Z,13.98
2023-03-25T08:44:13.882Z,13.50
2023-03-25T08:46:43.837Z,13.90
2023-03-25T08:49:13.837Z,13.20
2023-03-25T08:51:43.833Z,14.05
2023-03-25T08:54:13.941Z,15.05
2023-03-25T08:56:43.857Z,15.60
2023-03-25T08:59:14.795Z,15.45
2023-03-25T09:01:45.421Z,14.68
2023-03-25T09:04:15.645Z,15.32
2023-03-25T09:06:47.595Z,14.93
2023-03-25T09:09:35.984Z,14.75
2023-03-25T09:12:07.235Z,14.45
2023-03-25T09:14:37.287Z,14.68
2023-03-25T09:17:12.070Z,14.48
2023-03-25T09:19:41.876Z,14.60
2023-03-25T09:22:12.036Z,15.30
2023-03-25T09:24:42.447Z,14.23
2023-03-25T09:27:12.812Z,13.27
2023-03-25T09:29:43.359Z,13.20
2023-03-25T09:32:13.341Z,13.80
2023-03-25T09:34:43.276Z,14.48
2023-03-25T09:37:13.801Z,15.35
2023-03-25T09:39:44.083Z,15.57
2023-03-25T09:42:51.195Z,14.63
2023-03-25T09:58:37.344Z,15.48
2023-03-25T10:01:32.695Z,15.32
2023-03-25T10:04:41.686Z,15.13
2023-03-25T10:07:30.402Z,14.10
2023-03-25T10:10:28.890Z,15.23
2023-03-25T10:13:34.704Z,15.45
2023-03-25T10:16:35.768Z,15.57
2023-03-25T10:19:31.636Z,16.55
2023-03-25T10:22:10.669Z,16.27
2023-03-25T10:24:54.897Z,17.95
2023-03-25T10:27:46.936Z,16.45
2023-03-25T10:30:45.787Z,17.05
2023-03-25T10:33:42.349Z,17.80
2023-03-25T10:36:20.882Z,18.85
2023-03-25T10:38:59.292Z,19.55
2023-03-25T10:41:37.407Z,19.40
2023-03-25T10:44:11.972Z,19.65
2023-03-25T10:47:06.408Z,19.67
2023-03-25T10:49:38.703Z,18.95
2023-03-25T10:52:08.759Z,19.20
2023-03-25T10:54:44.563Z,20.05
2023-03-25T10:57:26.095Z,20.77
2023-03-25T11:00:08.357Z,19.65
2023-03-25T11:02:38.578Z,19.98
2023-03-25T11:05:11.639Z,19.38
2023-03-25T11:07:52.789Z,20.48
2023-03-25T11:10:28.874Z,17.67
2023-03-25T11:13:05.431Z,17.88
2023-03-25T11:15:40.609Z,25.00
2023-03-25T11:18:39.086Z,27.45
2023-03-25T11:21:13.453Z,28.92
2023-03-25T11:23:54.355Z,29.05
2023-03-25T11:26:38.718Z,28.33
2023-03-25T11:29:17.602Z,27.35
2023-03-25T11:32:00.726Z,29.08
2023-03-25T11:34:32.941Z,28.80
2023-03-25T11:37:11.322Z,29.85
2023-03-25T11:39:44.333Z,30.38
2023-03-25T11:42:51.484Z,28.08
2023-03-25T11:45:41.062Z,27.95
2023-03-25T11:48:19.152Z,28.45
2023-03-25T11:51:11.020Z,30.65
2023-03-25T11:53:49.331Z,27.50
2023-03-25T11:56:25.665Z,25.52
2023-03-25T11:59:02.600Z,23.77
2023-03-25T12:01:48.313Z,24.13
2023-03-25T12:04:27.027Z,21.88
2023-03-25T12:07:00.835Z,29.83
2023-03-25T12:09:33.757Z,26.60
2023-03-25T12:12:30.692Z,26.67
2023-03-25T12:15:41.457Z,25.63
2023-03-25T12:18:50.635Z,25.33
2023-03-25T12:21:47.458Z,22.88
2023-03-25T12:24:57.416Z,20.98
2023-03-25T12:27:57.096Z,19.88
2023-03-25T12:30:53.364Z,20.27
2023-03-25T12:34:02.816Z,20.23
2023-03-25T12:36:49.780Z,19.63
2023-03-25T12:39:58.720Z,18.35
2023-03-25T12:43:04.017Z,18.77
2023-03-25T12:46:12.721Z,29.50
2023-03-25T12:49:09.324Z,21.98
2023-03-25T12:52:13.796Z,20.42
2023-03-25T12:55:22.671Z,21.70
2023-03-25T12:58:31.416Z,19.30
2023-03-25T13:01:31.940Z,20.55
2023-03-25T13:04:19.634Z,19.02
2023-03-25T13:07:13.871Z,20.55
2023-03-25T13:10:13.509Z,22.02
2023-03-25T13:13:05.195Z,19.25
2023-03-25T13:15:43.096Z,19.60
2023-03-25T13:18:29.913Z,18.42
2023-03-25T13:21:23.323Z,21.55
2023-03-25T13:24:01.582Z,20.90
2023-03-25T13:26:34.272Z,18.73
2023-03-25T13:29:27.200Z,19.52
2023-03-25T13:32:01.828Z,18.35
2023-03-25T13:34:57.039Z,20.15
2023-03-25T13:37:40.406Z,19.85
2023-03-25T13:40:30.148Z,18.20
2023-03-25T13:43:25.613Z,18.85
2023-03-25T13:46:15.984Z,19.45
2023-03-25T13:49:12.083Z,18.83
2023-03-25T13:51:41.788Z,18.40
2023-03-25T13:54:25.946Z,19.10
2023-03-25T13:57:23.628Z,19.23
2023-03-25T14:00:23.154Z,21.73
2023-03-25T14:03:29.684Z,21.02
2023-03-25T14:06:33.391Z,21.30
2023-03-25T14:09:42.147Z,21.35
2023-03-25T14:12:21.742Z,21.38
2023-03-25T14:15:01.687Z,19.60
2023-03-25T14:17:32.469Z,19.08
2023-03-25T14:20:03.474Z,18.65
2023-03-25T14:22:38.540Z,19.50
2023-03-25T14:25:09.378Z,19.48
2023-03-25T14:27:39.533Z,18.88
2023-03-25T14:30:22.080Z,19.48
2023-03-25T14:32:53.555Z,20.73
2023-03-25T14:35:48.904Z,20.15
2023-03-25T14:38:23.785Z,20.88
2023-03-25T14:41:01.967Z,19.67
2023-03-25T14:44:03.872Z,21.92
2023-03-25T14:46:38.143Z,22.90
2023-03-25T14:52:31.832Z,24.88
2023-03-25T14:55:07.984Z,25.45
2023-03-25T14:57:44.493Z,27.45
2023-03-25T15:00:29.528Z,27.25
2023-03-25T15:03:15.228Z,29.58
2023-03-25T15:05:45.532Z,32.45
2023-03-25T15:08:26.177Z,29.38
2023-03-25T15:11:18.492Z,28.33
2023-03-25T15:13:55.071Z,33.95
2023-03-25T15:17:03.775Z,32.78
2023-03-25T15:20:13.720Z,31.98
2023-03-25T15:22:43.461Z,37.95
2023-03-25T15:25:18.680Z,45.80
2023-03-25T15:28:07.499Z,40.85
2023-03-25T15:31:04.635Z,47.85
2023-03-25T15:33:57.518Z,32.67
2023-03-25T15:36:57.251Z,28.17
2023-03-25T15:39:59.913Z,29.38
2023-03-25T15:42:48.713Z,31.92
2023-03-25T15:45:48.362Z,37.80
2023-03-25T15:48:42.265Z,40.10
2023-03-25T15:51:50.984Z,38.55
2023-03-25T15:54:33.715Z,38.33
2023-03-25T15:57:18.751Z,38.20
2023-03-25T16:00:16.765Z,38.97
2023-03-25T16:03:13.906Z,40.45
2023-03-25T16:05:57.217Z,44.22
2023-03-25T16:08:48.795Z,44.25
2023-03-25T16:11:27.739Z,39.95
2023-03-25T16:14:18.535Z,40.50
2023-03-25T16:16:55.333Z,41.78
2023-03-25T16:19:30.880Z,40.58
2023-03-25T16:22:05.531Z,38.88
2023-03-25T16:24:36.485Z,37.63
2023-03-25T16:27:25.755Z,36.97
2023-03-25T16:30:00.493Z,34.75
2023-03-25T16:32:37.732Z,35.17
2023-03-25T16:35:09.970Z,33.60
2023-03-25T16:37:42.205Z,36.47
2023-03-25T16:40:21.218Z,35.92
2023-03-25T16:42:51.524Z,32.28
2023-03-25T16:45:21.190Z,33.10
2023-03-25T16:47:51.824Z,32.95
2023-03-25T16:50:22.550Z,32.00
2023-03-25T16:52:54.347Z,31.20
2023-03-25T16:55:35.490Z,31.35
2023-03-25T16:58:05.290Z,33.47
2023-03-25T17:00:44.991Z,35.28
2023-03-25T17:03:19.403Z,36.08
2023-03-25T17:06:06.282Z,35.15
2023-03-25T17:08:36.939Z,38.05
2023-03-25T17:11:09.861Z,35.17
2023-03-25T17:13:53.905Z,35.95
2023-03-25T17:16:24.631Z,38.10
2023-03-25T17:18:57.775Z,36.35
2023-03-25T17:21:31.841Z,36.65
2023-03-25T17:24:22.954Z,36.05
2023-03-25T17:27:05.780Z,37.42
2023-03-25T17:29:35.552Z,37.10
2023-03-25T17:32:05.584Z,36.42
2023-03-25T17:34:44.402Z,37.70
2023-03-25T17:37:16.115Z,38.17
2023-03-25T17:39:51.900Z,37.60
2023-03-25T17:42:28.658Z,36.17
2023-03-25T17:44:58.339Z,36.63
2023-03-25T17:47:28.097Z,37.63
2023-03-25T17:49:58.990Z,36.90
2023-03-25T17:52:31.766Z,37.63
2023-03-25T17:55:01.579Z,37.90
2023-03-25T17:57:31.158Z,36.83
2023-03-25T18:00:00.835Z,37.42
2023-03-25T18:02:30.596Z,38.42
2023-03-25T18:05:00.251Z,37.08
2023-03-25T18:07:29.860Z,38.72
2023-03-25T18:09:59.591Z,40.60
2023-03-25T18:12:29.831Z,38.28
2023-03-25T18:14:59.399Z,36.78
2023-03-25T18:17:29.025Z,38.35
2023-03-25T18:19:58.660Z,35.63
2023-03-25T18:22:28.485Z,38.55
2023-03-25T18:24:58.042Z,38.22
2023-03-25T18:27:40.728Z,39.08
2023-03-25T18:30:21.895Z,37.42
2023-03-25T18:32:51.700Z,37.10
2023-03-25T18:35:21.716Z,37.95
2023-03-25T18:37:52.083Z,39.13
2023-03-25T18:40:29.895Z,40.05
2023-03-25T18:42:59.555Z,40.15
2023-03-25T18:45:29.465Z,38.22
2023-03-25T18:47:59.304Z,38.75
2023-03-25T18:50:34.257Z,41.10
2023-03-25T18:53:04.220Z,40.47
2023-03-25T18:55:35.159Z,37.83
2023-03-25T18:58:06.127Z,38.00
2023-03-25T19:00:40.461Z,38.95
2023-03-25T19:03:10.780Z,39.45
2023-03-25T19:05:40.443Z,39.33
2023-03-25T19:08:15.975Z,41.13
2023-03-25T19:10:46.297Z,40.90
2023-03-25T19:13:17.595Z,40.08
2023-03-25T19:15:48.260Z,42.03
2023-03-25T19:18:24.742Z,42.92
2023-03-25T19:20:55.514Z,46.97
2023-03-25T19:23:25.633Z,45.40
2023-03-25T19:25:59.390Z,44.10
2023-03-25T19:28:29.287Z,42.00
2023-03-25T19:31:02.959Z,42.90
2023-03-25T19:33:32.977Z,41.13
2023-03-25T19:36:05.875Z,52.08
2023-03-25T19:38:36.435Z,48.50
2023-03-25T19:41:12.420Z,49.10
2023-03-25T19:43:42.777Z,47.70
2023-03-25T19:46:12.953Z,48.50
2023-03-25T19:48:42.846Z,48.70
2023-03-25T19:51:12.673Z,50.13
2023-03-25T19:53:42.429Z,49.92
2023-03-25T19:56:15.564Z,48.53
2023-03-25T19:58:45.266Z,49.17
2023-03-25T20:01:14.950Z,49.20
2023-03-25T20:03:44.846Z,48.95
2023-03-25T20:06:14.703Z,47.95
2023-03-25T20:08:44.486Z,48.88
2023-03-25T20:11:14.517Z,45.58
2023-03-25T20:13:44.204Z,49.38
2023-03-25T20:16:14.030Z,50.17
2023-03-25T20:18:43.857Z,49.92
2023-03-25T20:21:13.688Z,48.00
2023-03-25T20:23:43.368Z,49.15
2023-03-25T20:26:13.224Z,49.65
2023-03-25T20:28:42.916Z,48.08
2023-03-25T20:31:21.885Z,48.67
2023-03-25T20:33:52.075Z,45.90
2023-03-25T20:36:23.178Z,45.60
2023-03-25T20:38:57.682Z,45.95
2023-03-25T20:41:28.876Z,45.55
2023-03-25T20:43:58.610Z,50.00
2023-03-25T20:46:32.873Z,52.28
2023-03-25T20:49:03.769Z,50.88
2023-03-25T20:51:33.463Z,48.60
2023-03-25T20:54:03.129Z,45.88
2023-03-25T20:56:33.464Z,48.97
2023-03-25T20:59:03.396Z,48.95
2023-03-25T21:01:36.771Z,46.65
2023-03-25T21:04:07.990Z,48.05
2023-03-25T21:06:37.614Z,46.30
2023-03-25T21:09:08.096Z,44.65
2023-03-25T21:11:37.969Z,45.97
2023-03-25T21:14:08.276Z,46.15
2023-03-25T21:16:37.995Z,46.95
2023-03-25T21:19:09.767Z,46.75
2023-03-25T21:21:40.131Z,47.47
2023-03-25T21:24:10.196Z,49.08
2023-03-25T21:26:40.027Z,50.55
2023-03-25T21:29:10.919Z,50.53
2023-03-25T21:31:40.665Z,49.63
2023-03-25T21:34:10.448Z,48.53
2023-03-25T21:36:40.203Z,52.40
2023-03-25T21:39:10.436Z,52.55
2023-03-25T21:44:00.849Z,49.03
2023-03-25T21:46:30.634Z,47.47
2023-03-25T21:49:01.340Z,49.67
2023-03-25T22:12:29.388Z,52.28
2023-03-25T22:26:40.236Z,47.75
2023-03-25T22:29:12.175Z,52.47
2023-03-25T22:31:42.344Z,50.17
2023-03-25T22:34:17.002Z,51.13
2023-03-25T22:36:51.267Z,50.03
2023-03-25T22:39:24.703Z,48.40
2023-03-25T22:46:35.716Z,52.22
2023-03-25T22:58:26.905Z,46.47
2023-03-25T23:00:57.799Z,46.70
2023-03-25T23:36:18.694Z,44.72
2023-03-25T23:38:49.745Z,45.47
2023-03-25T23:41:24.499Z,43.25
2023-03-25T23:43:56.044Z,44.08
2023-03-25T23:46:27.397Z,44.10
2023-03-25T23:48:57.578Z,44.83
2023-03-25T23:51:27.858Z,44.33
2023-03-25T23:53:58.443Z,45.70
2023-03-25T23:56:28.090Z,47.15
2023-03-25T23:58:57.889Z,43.47
